createdAt,value
2017-10-30T00:00:20.565Z,7.27
2017-10-30T00:01:20.961Z,7.27
2017-10-30T00:02:20.197Z,7.31
2017-10-30T00:03:20.843Z,7.34
2017-10-30T00:04:20.830Z,7.34
2017-10-30T00:05:20.138Z,7.29
2017-10-30T00:06:20.452Z,7.35
2017-10-30T00:07:20.772Z,7.32
2017-10-30T00:08:20.753Z,7.32
2017-10-30T00:09:20.068Z,7.35
2017-10-30T00:10:20.384Z,7.44
2017-10-30T00:11:20.695Z,7.35
2017-10-30T00:12:20.677Z,7.42
2017-10-30T00:13:20.318Z,7.4
2017-10-30T00:14:20.303Z,7.42
2017-10-30T00:15:20.283Z,7.35
2017-10-30T00:16:20.275Z,7.31
2017-10-30T00:17:20.255Z,7.35
2017-10-30T00:18:20.570Z,7.32
2017-10-30T00:19:20.209Z,7.41
2017-10-30T00:20:20.546Z,7.32
2017-10-30T00:21:19.838Z,7.35
2017-10-30T00:22:20.161Z,7.31
2017-10-30T00:23:20.136Z,7.32
2017-10-30T00:24:20.451Z,7.31
2017-10-30T00:25:20.097Z,7.29
2017-10-30T00:26:20.082Z,7.34
2017-10-30T00:27:19.728Z,7.22
2017-10-30T00:28:20.367Z,7.31
2017-10-30T00:29:20.035Z,7.26
2017-10-30T00:30:20.340Z,7.24
2017-10-30T00:31:19.985Z,7.23
2017-10-30T00:32:20.409Z,7.24
2017-10-30T00:33:19.958Z,7.26
2017-10-30T00:34:20.268Z,7.26
2017-10-30T00:35:19.926Z,7.26
2017-10-30T00:36:19.907Z,7.27
2017-10-30T00:37:20.259Z,7.16
2017-10-30T00:38:19.857Z,7.24
2017-10-30T00:39:19.834Z,7.23
2017-10-30T00:40:20.164Z,7.29
2017-10-30T00:41:19.802Z,7.23
2017-10-30T00:42:19.784Z,7.23
2017-10-30T00:43:20.108Z,7.2
2017-10-30T00:44:19.747Z,7.13
2017-10-30T00:45:19.735Z,7.19
2017-10-30T00:46:20.039Z,7.24
2017-10-30T00:47:20.160Z,7.26
2017-10-30T00:48:19.341Z,7.15
2017-10-30T00:49:19.652Z,7.19
2017-10-30T00:50:19.634Z,7.2
2017-10-30T00:51:19.280Z,7.17
2017-10-30T00:52:19.588Z,7.17
2017-10-30T00:53:19.582Z,7.17
2017-10-30T00:54:19.882Z,7.16
2017-10-30T00:55:19.539Z,7.17
2017-10-30T00:56:19.517Z,7.12
2017-10-30T00:57:19.264Z,7.12
2017-10-30T00:58:19.148Z,7.13
2017-10-30T00:59:19.465Z,7.08
2017-10-30T01:00:19.438Z,6.97
2017-10-30T01:01:19.623Z,7.09
2017-10-30T01:02:19.065Z,7.05
2017-10-30T01:03:19.046Z,7.13
2017-10-30T01:04:19.368Z,7.13
2017-10-30T01:05:19.012Z,7.08
2017-10-30T01:06:19.329Z,7.05
2017-10-30T01:07:19.313Z,7.07
2017-10-30T01:08:19.298Z,7.04
2017-10-30T01:09:19.280Z,7.01
2017-10-30T01:10:18.925Z,7.05
2017-10-30T01:11:19.579Z,7.04
2017-10-30T01:12:19.228Z,7.04
2017-10-30T01:13:19.205Z,7.01
2017-10-30T01:14:19.517Z,6.98
2017-10-30T01:15:19.492Z,6.99
2017-10-30T01:16:19.507Z,6.99
2017-10-30T01:17:19.115Z,6.84
2017-10-30T01:18:19.102Z,6.9
2017-10-30T01:19:19.081Z,6.97
2017-10-30T01:20:19.400Z,6.98
2017-10-30T01:21:19.046Z,6.9
2017-10-30T01:22:19.363Z,6.91
2017-10-30T01:23:19.002Z,6.91
2017-10-30T01:24:19.318Z,6.97
2017-10-30T01:25:18.967Z,6.95
2017-10-30T01:26:19.494Z,6.9
2017-10-30T01:27:19.282Z,6.91
2017-10-30T01:28:19.251Z,6.9
2017-10-30T01:29:19.227Z,6.86
2017-10-30T01:30:18.879Z,6.87
2017-10-30T01:31:19.256Z,6.86
2017-10-30T01:32:18.835Z,6.8
2017-10-30T01:33:18.912Z,6.86
2017-10-30T01:34:18.793Z,6.94
2017-10-30T01:35:19.122Z,6.91
2017-10-30T01:36:18.758Z,6.86
2017-10-30T01:37:19.101Z,6.84
2017-10-30T01:38:18.717Z,6.99
2017-10-30T01:39:19.069Z,6.95
2017-10-30T01:40:19.024Z,7.02
2017-10-30T01:41:18.328Z,6.98
2017-10-30T01:42:18.647Z,6.97
2017-10-30T01:43:19.057Z,6.95
2017-10-30T01:44:18.936Z,6.95
2017-10-30T01:45:18.254Z,6.91
2017-10-30T01:46:18.235Z,6.95
2017-10-30T01:47:18.890Z,6.99
2017-10-30T01:48:18.536Z,6.98
2017-10-30T01:49:18.859Z,6.98
2017-10-30T01:50:18.160Z,7.02
2017-10-30T01:51:18.827Z,6.91
2017-10-30T01:52:18.790Z,6.99
2017-10-30T01:53:18.436Z,6.98
2017-10-30T01:54:18.414Z,7.02
2017-10-30T01:55:18.727Z,7.04
2017-10-30T01:56:18.713Z,7.01
2017-10-30T01:57:18.355Z,7.01
2017-10-30T01:58:18.008Z,7.01
2017-10-30T01:59:18.425Z,6.95
2017-10-30T02:00:18.638Z,6.91
2017-10-30T02:01:18.623Z,6.99
2017-10-30T02:02:18.267Z,7.05
2017-10-30T02:03:18.251Z,7.02
2017-10-30T02:04:18.569Z,6.95
2017-10-30T02:05:18.211Z,6.9
2017-10-30T02:06:18.524Z,6.91
2017-10-30T02:07:18.168Z,6.95
2017-10-30T02:08:18.152Z,6.91
2017-10-30T02:09:18.135Z,6.99
2017-10-30T02:10:18.131Z,7.01
2017-10-30T02:11:18.096Z,6.99
2017-10-30T02:12:18.077Z,6.99
2017-10-30T02:13:18.398Z,7.05
2017-10-30T02:14:18.371Z,6.99
2017-10-30T02:15:18.358Z,6.84
2017-10-30T02:16:18.011Z,7.02
2017-10-30T02:17:17.992Z,6.98
2017-10-30T02:18:18.298Z,6.97
2017-10-30T02:19:18.047Z,6.98
2017-10-30T02:20:17.934Z,7.01
2017-10-30T02:21:17.911Z,6.9
2017-10-30T02:22:18.226Z,6.98
2017-10-30T02:23:18.201Z,7.02
2017-10-30T02:24:18.181Z,6.98
2017-10-30T02:25:17.503Z,6.94
2017-10-30T02:26:17.810Z,6.87
2017-10-30T02:27:17.791Z,6.95
2017-10-30T02:28:17.771Z,6.99
2017-10-30T02:29:17.752Z,6.99
2017-10-30T02:30:17.399Z,7.04
2017-10-30T02:31:17.716Z,6.86
2017-10-30T02:32:17.697Z,6.97
2017-10-30T02:33:18.048Z,6.99
2017-10-30T02:34:17.662Z,6.94
2017-10-30T02:35:17.643Z,6.94
2017-10-30T02:36:17.628Z,6.9
2017-10-30T02:37:17.274Z,6.95
2017-10-30T02:38:17.924Z,6.94
2017-10-30T02:39:17.566Z,6.91
2017-10-30T02:40:17.896Z,6.87
2017-10-30T02:41:17.538Z,6.94
2017-10-30T02:42:17.845Z,6.87
2017-10-30T02:43:17.484Z,6.83
2017-10-30T02:44:17.134Z,6.83
2017-10-30T02:45:17.883Z,6.84
2017-10-30T02:46:17.102Z,6.84
2017-10-30T02:47:17.420Z,6.81
2017-10-30T02:48:17.395Z,6.89
2017-10-30T02:49:17.704Z,6.9
2017-10-30T02:50:17.364Z,6.86
2017-10-30T02:51:17.345Z,6.86
2017-10-30T02:52:17.326Z,6.86
2017-10-30T02:53:17.644Z,6.86
2017-10-30T02:54:17.286Z,6.84
2017-10-30T02:55:17.269Z,6.81
2017-10-30T02:56:17.245Z,6.86
2017-10-30T02:57:17.221Z,6.79
2017-10-30T02:58:17.542Z,6.71
2017-10-30T02:59:16.855Z,6.73
2017-10-30T03:00:17.500Z,6.76
2017-10-30T03:01:17.142Z,6.65
2017-10-30T03:02:17.467Z,6.63
2017-10-30T03:03:16.778Z,6.62
2017-10-30T03:04:17.089Z,6.58
2017-10-30T03:05:17.501Z,6.62
2017-10-30T03:06:17.063Z,6.63
2017-10-30T03:07:17.032Z,6.53
2017-10-30T03:08:16.683Z,6.56
2017-10-30T03:09:16.993Z,6.51
2017-10-30T03:10:16.972Z,6.46
2017-10-30T03:11:17.287Z,6.47
2017-10-30T03:12:17.294Z,6.48
2017-10-30T03:13:17.247Z,6.46
2017-10-30T03:14:16.901Z,6.46
2017-10-30T03:15:17.207Z,6.44
2017-10-30T03:16:16.857Z,6.48
2017-10-30T03:17:17.177Z,6.53
2017-10-30T03:18:17.148Z,6.43
2017-10-30T03:19:16.807Z,6.33
2017-10-30T03:20:16.795Z,6.33
2017-10-30T03:21:16.764Z,6.32
2017-10-30T03:22:16.747Z,6.28
2017-10-30T03:23:16.398Z,6.22
2017-10-30T03:24:17.046Z,6.19
2017-10-30T03:25:16.687Z,6.13
2017-10-30T03:26:16.679Z,6.09
2017-10-30T03:27:16.993Z,6.11
2017-10-30T03:28:16.636Z,6.07
2017-10-30T03:29:16.948Z,6.09
2017-10-30T03:30:16.598Z,6.06
2017-10-30T03:31:16.573Z,5.96
2017-10-30T03:32:16.554Z,5.95
2017-10-30T03:33:16.877Z,5.95
2017-10-30T03:34:16.509Z,5.92
2017-10-30T03:35:16.835Z,6.04
2017-10-30T03:36:16.470Z,6.01
2017-10-30T03:37:16.453Z,5.95
2017-10-30T03:38:16.770Z,5.95
2017-10-30T03:39:16.754Z,6
2017-10-30T03:40:16.391Z,5.98
2017-10-30T03:41:16.816Z,6.07
2017-10-30T03:42:16.690Z,6.1
2017-10-30T03:43:16.012Z,6
2017-10-30T03:44:16.319Z,6.07
2017-10-30T03:45:16.643Z,6.07
2017-10-30T03:46:16.604Z,6.07
2017-10-30T03:47:16.275Z,6.1
2017-10-30T03:48:15.909Z,6.11
2017-10-30T03:49:15.895Z,6.07
2017-10-30T03:50:16.205Z,6.1
2017-10-30T03:51:16.517Z,6.19
2017-10-30T03:52:16.503Z,6.22
2017-10-30T03:53:15.835Z,6.19
2017-10-30T03:54:16.127Z,6.3
2017-10-30T03:55:15.780Z,6.28
2017-10-30T03:56:16.523Z,6.3
2017-10-30T03:57:16.065Z,6.28
2017-10-30T03:58:16.052Z,6.36
2017-10-30T03:59:16.372Z,6.28
2017-10-30T04:00:16.017Z,6.38
2017-10-30T04:01:15.991Z,6.29
2017-10-30T04:02:15.639Z,6.29
2017-10-30T04:03:15.618Z,6.32
2017-10-30T04:04:16.268Z,6.33
2017-10-30T04:05:16.245Z,6.32
2017-10-30T04:06:15.887Z,6.26
2017-10-30T04:07:15.878Z,6.19
2017-10-30T04:08:15.851Z,6.26
2017-10-30T04:09:16.164Z,6.22
2017-10-30T04:10:15.484Z,6.19
2017-10-30T04:11:15.788Z,6.21
2017-10-30T04:12:15.772Z,6.11
2017-10-30T04:13:16.126Z,6.11
2017-10-30T04:14:16.069Z,6.09
2017-10-30T04:15:15.719Z,6.03
2017-10-30T04:16:16.031Z,5.96
2017-10-30T04:17:16.019Z,6
2017-10-30T04:18:15.998Z,6
2017-10-30T04:19:15.661Z,5.96
2017-10-30T04:20:15.624Z,6.03
2017-10-30T04:21:15.612Z,5.89
2017-10-30T04:22:15.598Z,5.93
2017-10-30T04:23:15.564Z,5.91
2017-10-30T04:24:15.887Z,5.89
2017-10-30T04:25:15.523Z,5.91
2017-10-30T04:26:15.843Z,5.95
2017-10-30T04:27:15.818Z,5.85
2017-10-30T04:28:15.796Z,5.83
2017-10-30T04:29:15.782Z,5.86
2017-10-30T04:30:15.436Z,5.83
2017-10-30T04:31:15.080Z,5.89
2017-10-30T04:32:15.488Z,5.78
2017-10-30T04:33:15.699Z,5.83
2017-10-30T04:34:15.354Z,5.86
2017-10-30T04:35:15.332Z,5.86
2017-10-30T04:36:15.309Z,5.93
2017-10-30T04:37:15.294Z,5.91
2017-10-30T04:38:15.298Z,5.91
2017-10-30T04:39:15.588Z,5.89
2017-10-30T04:40:15.238Z,5.91
2017-10-30T04:41:15.216Z,5.91
2017-10-30T04:42:15.633Z,5.91
2017-10-30T04:43:15.172Z,5.88
2017-10-30T04:44:15.149Z,5.89
2017-10-30T04:45:15.162Z,6
2017-10-30T04:46:15.119Z,5.98
2017-10-30T04:47:15.435Z,5.95
2017-10-30T04:48:15.070Z,5.95
2017-10-30T04:49:14.716Z,6.01
2017-10-30T04:50:15.046Z,5.91
2017-10-30T04:51:15.345Z,5.88
2017-10-30T04:52:15.337Z,5.96
2017-10-30T04:53:15.005Z,5.98
2017-10-30T04:54:15.305Z,5.96
2017-10-30T04:55:14.608Z,6
2017-10-30T04:56:14.922Z,5.96
2017-10-30T04:57:14.900Z,5.92
2017-10-30T04:58:14.881Z,5.89
2017-10-30T04:59:14.528Z,5.89
2017-10-30T05:00:15.172Z,5.85
2017-10-30T05:01:14.821Z,5.93
2017-10-30T05:02:15.138Z,5.92
2017-10-30T05:03:14.787Z,6.01
2017-10-30T05:04:15.113Z,5.96
2017-10-30T05:05:14.751Z,6.04
2017-10-30T05:06:15.064Z,6.07
2017-10-30T05:07:14.708Z,6.04
2017-10-30T05:08:14.688Z,6.07
2017-10-30T05:09:14.665Z,6.07
2017-10-30T05:10:14.991Z,6.14
2017-10-30T05:11:14.621Z,6.14
2017-10-30T05:12:14.269Z,6.11
2017-10-30T05:13:14.588Z,6.18
2017-10-30T05:14:14.559Z,6.06
2017-10-30T05:15:14.555Z,6.09
2017-10-30T05:16:14.543Z,6.1
2017-10-30T05:17:14.176Z,6.19
2017-10-30T05:18:14.830Z,6.13
2017-10-30T05:19:14.468Z,6.14
2017-10-30T05:20:14.788Z,6.13
2017-10-30T05:21:14.432Z,6.13
2017-10-30T05:22:14.075Z,6.14
2017-10-30T05:23:14.730Z,6.16
2017-10-30T05:24:14.373Z,6.26
2017-10-30T05:25:14.682Z,6.22
2017-10-30T05:26:14.337Z,6.22
2017-10-30T05:27:14.308Z,6.18
2017-10-30T05:28:14.628Z,6.29
2017-10-30T05:29:13.945Z,6.25
2017-10-30T05:30:14.254Z,6.3
2017-10-30T05:31:14.571Z,6.33
2017-10-30T05:32:14.083Z,6.35
2017-10-30T05:33:13.864Z,6.29
2017-10-30T05:34:14.179Z,6.33
2017-10-30T05:35:14.170Z,6.32
2017-10-30T05:36:14.142Z,6.29
2017-10-30T05:37:13.783Z,6.26
2017-10-30T05:38:14.097Z,6.29
2017-10-30T05:39:13.750Z,6.29
2017-10-30T05:40:13.725Z,6.18
2017-10-30T05:41:14.381Z,6.21
2017-10-30T05:42:14.359Z,6.25
2017-10-30T05:43:13.999Z,6.22
2017-10-30T05:44:13.987Z,6.22
2017-10-30T05:45:13.967Z,6.26
2017-10-30T05:46:13.943Z,6.26
2017-10-30T05:47:13.920Z,6.35
2017-10-30T05:48:14.243Z,6.32
2017-10-30T05:49:13.886Z,6.35
2017-10-30T05:50:13.864Z,6.32
2017-10-30T05:51:13.877Z,6.32
2017-10-30T05:52:14.173Z,6.36
2017-10-30T05:53:13.475Z,6.29
2017-10-30T05:54:13.792Z,6.3
2017-10-30T05:55:14.112Z,6.36
2017-10-30T05:56:14.087Z,6.41
2017-10-30T05:57:13.743Z,6.46
2017-10-30T05:58:13.714Z,6.3
2017-10-30T05:59:13.685Z,6.47
2017-10-30T06:00:14.021Z,6.46
2017-10-30T06:01:13.321Z,6.46
2017-10-30T06:02:13.638Z,6.47
2017-10-30T06:03:13.612Z,6.53
2017-10-30T06:04:13.929Z,6.51
2017-10-30T06:05:13.910Z,6.5
2017-10-30T06:06:13.893Z,6.58
2017-10-30T06:07:13.533Z,6.61
2017-10-30T06:08:13.552Z,6.63
2017-10-30T06:09:13.502Z,6.54
2017-10-30T06:10:13.486Z,6.66
2017-10-30T06:11:13.474Z,6.59
2017-10-30T06:12:13.785Z,6.61
2017-10-30T06:13:13.088Z,6.69
2017-10-30T06:14:13.405Z,6.71
2017-10-30T06:15:13.380Z,6.71
2017-10-30T06:16:13.366Z,6.72
2017-10-30T06:17:13.677Z,6.72
2017-10-30T06:18:12.998Z,6.73
2017-10-30T06:19:12.974Z,6.73
2017-10-30T06:20:13.304Z,6.63
2017-10-30T06:21:13.276Z,6.58
2017-10-30T06:22:12.919Z,6.62
2017-10-30T06:23:13.228Z,6.56
2017-10-30T06:24:13.316Z,6.66
2017-10-30T06:25:13.211Z,6.62
2017-10-30T06:26:13.512Z,6.62
2017-10-30T06:27:12.823Z,6.62
2017-10-30T06:28:12.804Z,6.63
2017-10-30T06:29:12.782Z,6.59
2017-10-30T06:30:12.779Z,6.65
2017-10-30T06:31:13.084Z,6.66
2017-10-30T06:32:13.089Z,6.54
2017-10-30T06:33:13.057Z,6.69
2017-10-30T06:34:12.788Z,6.66
2017-10-30T06:35:13.339Z,6.54
2017-10-30T06:36:12.652Z,6.59
2017-10-30T06:37:12.968Z,6.59
2017-10-30T06:38:12.944Z,6.58
2017-10-30T06:39:13.366Z,6.51
2017-10-30T06:40:13.243Z,6.54
2017-10-30T06:41:13.279Z,6.59
2017-10-30T06:42:12.877Z,6.5
2017-10-30T06:43:12.864Z,6.51
2017-10-30T06:44:13.086Z,6.47
2017-10-30T06:45:13.146Z,6.43
2017-10-30T06:46:12.797Z,6.4
2017-10-30T06:47:13.105Z,6.36
2017-10-30T06:48:12.759Z,6.4
2017-10-30T06:49:12.730Z,6.43
2017-10-30T06:50:12.724Z,6.4
2017-10-30T06:51:12.710Z,6.47
2017-10-30T06:52:12.675Z,6.5
2017-10-30T06:53:12.998Z,6.5
2017-10-30T06:54:12.980Z,6.5
2017-10-30T06:55:12.630Z,6.54
2017-10-30T06:56:12.956Z,6.56
2017-10-30T06:57:12.921Z,6.51
2017-10-30T06:58:12.914Z,6.62
2017-10-30T06:59:12.542Z,6.59
2017-10-30T07:00:12.526Z,6.59
2017-10-30T07:01:12.515Z,6.61
2017-10-30T07:02:12.846Z,6.71
2017-10-30T07:03:12.133Z,6.76
2017-10-30T07:04:12.450Z,6.77
2017-10-30T07:05:12.765Z,6.76
2017-10-30T07:06:12.741Z,6.87
2017-10-30T07:07:12.398Z,6.98
2017-10-30T07:08:12.039Z,6.84
2017-10-30T07:09:12.556Z,6.98
2017-10-30T07:10:12.334Z,6.95
2017-10-30T07:11:12.316Z,7.05
2017-10-30T07:12:12.299Z,7.04
2017-10-30T07:13:12.651Z,7.13
2017-10-30T07:14:12.265Z,7.19
2017-10-30T07:15:12.572Z,7.17
2017-10-30T07:16:12.556Z,7.12
2017-10-30T07:17:12.206Z,7.23
2017-10-30T07:18:12.192Z,7.19
2017-10-30T07:19:12.500Z,7.29
2017-10-30T07:20:12.479Z,7.27
2017-10-30T07:21:12.135Z,7.29
2017-10-30T07:22:12.108Z,7.35
2017-10-30T07:23:12.430Z,7.41
2017-10-30T07:24:11.735Z,7.37
2017-10-30T07:25:12.396Z,7.32
2017-10-30T07:26:12.377Z,7.42
2017-10-30T07:27:12.017Z,7.34
2017-10-30T07:28:12.000Z,7.44
2017-10-30T07:29:11.978Z,7.44
2017-10-30T07:30:12.293Z,7.53
2017-10-30T07:31:11.953Z,7.45
2017-10-30T07:32:11.789Z,7.45
2017-10-30T07:33:11.574Z,7.52
2017-10-30T07:34:12.218Z,7.53
2017-10-30T07:35:11.972Z,7.58
2017-10-30T07:36:11.848Z,7.55
2017-10-30T07:37:11.831Z,7.55
2017-10-30T07:38:11.477Z,7.55
2017-10-30T07:39:12.131Z,7.58
2017-10-30T07:40:11.778Z,7.55
2017-10-30T07:41:11.756Z,7.6
2017-10-30T07:42:11.743Z,7.63
2017-10-30T07:43:11.385Z,7.63
2017-10-30T07:44:11.721Z,7.77
2017-10-30T07:45:12.127Z,7.72
2017-10-30T07:46:12.014Z,7.71
2017-10-30T07:47:11.651Z,7.67
2017-10-30T07:48:11.632Z,7.74
2017-10-30T07:49:11.279Z,7.78
2017-10-30T07:50:11.593Z,7.75
2017-10-30T07:51:11.576Z,7.81
2017-10-30T07:52:11.893Z,7.78
2017-10-30T07:53:11.886Z,7.82
2017-10-30T07:54:11.852Z,7.82
2017-10-30T07:55:11.514Z,7.85
2017-10-30T07:56:11.824Z,7.9
2017-10-30T07:57:11.469Z,7.87
2017-10-30T07:58:11.455Z,7.94
2017-10-30T07:59:11.762Z,8.02
2017-10-30T08:00:11.422Z,8.03
2017-10-30T08:01:11.727Z,8.03
2017-10-30T08:02:11.709Z,8.07
2017-10-30T08:03:11.368Z,8.1
2017-10-30T08:04:11.006Z,8.14
2017-10-30T08:05:11.376Z,8.17
2017-10-30T08:06:10.972Z,8.18
2017-10-30T08:07:11.313Z,8.12
2017-10-30T08:08:11.609Z,8.15
2017-10-30T08:09:10.919Z,8.22
2017-10-30T08:10:11.675Z,8.22
2017-10-30T08:11:11.223Z,8.17
2017-10-30T08:12:11.192Z,8.33
2017-10-30T08:13:11.175Z,8.22
2017-10-30T08:14:11.167Z,8.33
2017-10-30T08:15:11.148Z,8.32
2017-10-30T08:16:11.472Z,8.4
2017-10-30T08:17:11.118Z,8.35
2017-10-30T08:18:11.429Z,8.45
2017-10-30T08:19:11.407Z,8.4
2017-10-30T08:20:11.391Z,8.44
2017-10-30T08:21:11.038Z,8.48
2017-10-30T08:22:11.367Z,8.58
2017-10-30T08:23:11.004Z,8.54
2017-10-30T08:24:11.320Z,8.53
2017-10-30T08:25:11.022Z,8.51
2017-10-30T08:26:11.292Z,8.54
2017-10-30T08:27:10.940Z,8.62
2017-10-30T08:28:10.921Z,8.57
2017-10-30T08:29:10.902Z,8.62
2017-10-30T08:30:11.221Z,8.73
2017-10-30T08:31:10.866Z,8.68
2017-10-30T08:32:10.518Z,8.71
2017-10-30T08:33:10.826Z,8.71
2017-10-30T08:34:11.152Z,8.63
2017-10-30T08:35:11.127Z,8.71
2017-10-30T08:36:10.447Z,8.72
2017-10-30T08:37:11.104Z,8.78
2017-10-30T08:38:11.088Z,8.86
2017-10-30T08:39:10.732Z,8.9
2017-10-30T08:40:11.041Z,8.79
2017-10-30T08:41:10.361Z,8.93
2017-10-30T08:42:11.018Z,8.94
2017-10-30T08:43:10.664Z,8.99
2017-10-30T08:44:10.310Z,9.05
2017-10-30T08:45:10.622Z,9.04
2017-10-30T08:46:10.328Z,9.15
2017-10-30T08:47:10.597Z,9.21
2017-10-30T08:48:10.914Z,9.24
2017-10-30T08:49:10.893Z,9.2
2017-10-30T08:50:10.543Z,9.25
2017-10-30T08:51:10.538Z,9.28
2017-10-30T08:52:10.177Z,9.28
2017-10-30T08:53:10.488Z,9.34
2017-10-30T08:54:10.142Z,9.25
2017-10-30T08:55:10.126Z,9.28
2017-10-30T08:56:10.440Z,9.27
2017-10-30T08:57:10.422Z,9.32
2017-10-30T08:58:10.742Z,9.24
2017-10-30T08:59:10.391Z,9.32
2017-10-30T09:00:10.719Z,9.27
2017-10-30T09:01:10.365Z,9.3
2017-10-30T09:02:10.677Z,9.4
2017-10-30T09:03:10.667Z,9.35
2017-10-30T09:04:10.312Z,9.42
2017-10-30T09:05:10.302Z,9.42
2017-10-30T09:06:10.377Z,9.43
2017-10-30T09:07:10.259Z,9.48
2017-10-30T09:08:10.249Z,9.42
2017-10-30T09:09:10.231Z,9.56
2017-10-30T09:10:10.217Z,9.6
2017-10-30T09:11:10.529Z,9.58
2017-10-30T09:12:09.851Z,9.61
2017-10-30T09:13:10.501Z,9.57
2017-10-30T09:14:10.485Z,9.58
2017-10-30T09:15:10.473Z,9.61
2017-10-30T09:16:10.113Z,9.63
2017-10-30T09:17:10.446Z,9.61
2017-10-30T09:18:10.091Z,9.67
2017-10-30T09:19:10.398Z,9.76
2017-10-30T09:20:10.430Z,9.82
2017-10-30T09:21:10.374Z,9.89
2017-10-30T09:22:09.685Z,9.94
2017-10-30T09:23:09.672Z,10.04
2017-10-30T09:24:10.329Z,10.09
2017-10-30T09:25:10.314Z,10.06
2017-10-30T09:26:10.298Z,10.18
2017-10-30T09:27:09.949Z,10.26
2017-10-30T09:28:10.270Z,10.21
2017-10-30T09:29:10.246Z,10.18
2017-10-30T09:30:09.905Z,10.22
2017-10-30T09:31:09.546Z,10.21
2017-10-30T09:32:10.317Z,10.17
2017-10-30T09:33:09.845Z,10.18
2017-10-30T09:34:09.496Z,10.26
2017-10-30T09:35:09.826Z,10.19
2017-10-30T09:36:10.133Z,10.24
2017-10-30T09:37:10.118Z,10.22
2017-10-30T09:38:09.779Z,10.26
2017-10-30T09:39:09.429Z,10.3
2017-10-30T09:40:10.091Z,10.26
2017-10-30T09:41:09.728Z,10.26
2017-10-30T09:42:09.478Z,10.34
2017-10-30T09:43:09.701Z,10.33
2017-10-30T09:44:10.009Z,10.36
2017-10-30T09:45:09.664Z,10.32
2017-10-30T09:46:09.320Z,10.36
2017-10-30T09:47:09.978Z,10.4
2017-10-30T09:48:09.955Z,10.46
2017-10-30T09:49:09.942Z,10.53
2017-10-30T09:50:09.933Z,10.58
2017-10-30T09:51:09.905Z,10.46
2017-10-30T09:52:09.558Z,10.51
2017-10-30T09:53:09.547Z,10.51
2017-10-30T09:54:09.880Z,10.53
2017-10-30T09:55:09.180Z,10.43
2017-10-30T09:56:09.500Z,10.51
2017-10-30T09:57:09.915Z,10.47
2017-10-30T09:58:09.469Z,10.44
2017-10-30T09:59:09.792Z,10.52
2017-10-30T10:00:09.440Z,10.59
2017-10-30T10:01:09.426Z,10.7
2017-10-30T10:02:09.412Z,10.63
2017-10-30T10:03:09.392Z,10.6
2017-10-30T10:04:09.393Z,10.76
2017-10-30T10:05:09.374Z,10.68
2017-10-30T10:06:09.354Z,10.76
2017-10-30T10:07:09.339Z,10.7
2017-10-30T10:08:09.658Z,10.55
2017-10-30T10:09:09.643Z,10.58
2017-10-30T10:10:09.633Z,10.53
2017-10-30T10:11:09.285Z,10.47
2017-10-30T10:12:09.601Z,10.52
2017-10-30T10:13:09.253Z,10.56
2017-10-30T10:14:09.239Z,10.74
2017-10-30T10:15:09.225Z,11.03
2017-10-30T10:16:08.875Z,11.27
2017-10-30T10:17:09.528Z,11.36
2017-10-30T10:18:09.513Z,11.43
2017-10-30T10:19:09.171Z,11.49
2017-10-30T10:20:09.149Z,11.46
2017-10-30T10:21:09.149Z,11.46
2017-10-30T10:22:09.456Z,11.38
2017-10-30T10:23:09.106Z,11.36
2017-10-30T10:24:09.093Z,11.36
2017-10-30T10:25:08.748Z,11.34
2017-10-30T10:26:09.402Z,11.44
2017-10-30T10:27:09.049Z,11.53
2017-10-30T10:28:09.041Z,11.57
2017-10-30T10:29:09.018Z,11.65
2017-10-30T10:30:09.006Z,11.75
2017-10-30T10:31:08.655Z,11.94
2017-10-30T10:32:09.324Z,12.27
2017-10-30T10:33:09.292Z,12.15
2017-10-30T10:34:09.280Z,12.21
2017-10-30T10:35:08.930Z,12.2
2017-10-30T10:36:09.255Z,12.21
2017-10-30T10:37:09.245Z,12.21
2017-10-30T10:38:08.896Z,12.29
2017-10-30T10:39:08.882Z,12.3
2017-10-30T10:40:09.208Z,12.34
2017-10-30T10:41:08.520Z,12.21
2017-10-30T10:42:08.844Z,12.29
2017-10-30T10:43:09.167Z,12.3
2017-10-30T10:44:08.819Z,12.3
2017-10-30T10:45:08.813Z,12.51
2017-10-30T10:46:09.122Z,12.6
2017-10-30T10:47:09.108Z,12.63
2017-10-30T10:48:08.866Z,12.69
2017-10-30T10:49:09.090Z,12.71
2017-10-30T10:50:08.742Z,12.64
2017-10-30T10:51:09.056Z,12.64
2017-10-30T10:52:08.386Z,12.45
2017-10-30T10:53:08.705Z,12.51
2017-10-30T10:54:08.691Z,12.46
2017-10-30T10:55:09.020Z,12.45
2017-10-30T10:56:08.679Z,12.44
2017-10-30T10:57:08.659Z,12.34
2017-10-30T10:58:08.743Z,12.24
2017-10-30T10:59:08.294Z,12.27
2017-10-30T11:00:08.637Z,12.37
2017-10-30T11:01:08.603Z,12.38
2017-10-30T11:02:08.259Z,12.34
2017-10-30T11:03:08.917Z,12.37
2017-10-30T11:04:08.572Z,12.23
2017-10-30T11:05:08.553Z,12.23
2017-10-30T11:06:08.874Z,12.27
2017-10-30T11:07:08.198Z,12.12
2017-10-30T11:08:08.520Z,12.16
2017-10-30T11:09:08.837Z,12.31
2017-10-30T11:10:08.828Z,12.67
2017-10-30T11:11:08.814Z,12.84
2017-10-30T11:12:08.468Z,12.79
2017-10-30T11:13:08.454Z,12.67
2017-10-30T11:14:08.450Z,12.51
2017-10-30T11:15:08.780Z,12.37
2017-10-30T11:16:08.748Z,12.33
2017-10-30T11:17:08.404Z,12.37
2017-10-30T11:18:08.059Z,12.69
2017-10-30T11:19:08.732Z,12.97
2017-10-30T11:20:08.037Z,13.22
2017-10-30T11:21:08.690Z,13.44
2017-10-30T11:22:08.363Z,13.61
2017-10-30T11:23:08.327Z,13.59
2017-10-30T11:24:08.321Z,13.55
2017-10-30T11:25:07.971Z,13.61
2017-10-30T11:26:08.294Z,13.58
2017-10-30T11:27:08.306Z,13.54
2017-10-30T11:28:08.601Z,13.54
2017-10-30T11:29:08.594Z,13.55
2017-10-30T11:30:08.244Z,13.46
2017-10-30T11:31:08.573Z,13.37
2017-10-30T11:32:08.757Z,13.32
2017-10-30T11:33:08.544Z,13.27
2017-10-30T11:34:07.868Z,13.17
2017-10-30T11:35:08.532Z,13.21
2017-10-30T11:36:08.183Z,13.02
2017-10-30T11:37:07.832Z,13.11
2017-10-30T11:38:08.488Z,13.12
2017-10-30T11:39:08.153Z,13.11
2017-10-30T11:40:08.155Z,13.03
2017-10-30T11:41:07.786Z,13.14
2017-10-30T11:42:08.438Z,13.4
2017-10-30T11:43:08.442Z,13.7
2017-10-30T11:44:08.093Z,13.95
2017-10-30T11:45:08.422Z,14.32
2017-10-30T11:46:08.080Z,14.37
2017-10-30T11:47:07.721Z,14.5
2017-10-30T11:48:08.055Z,14.78
2017-10-30T11:49:08.034Z,15.28
2017-10-30T11:50:08.358Z,15.45
2017-10-30T11:51:08.031Z,15.81
2017-10-30T11:52:07.680Z,15.93
2017-10-30T11:53:08.358Z,16.04
2017-10-30T11:54:07.991Z,16.31
2017-10-30T11:55:07.990Z,16.3
2017-10-30T11:56:08.306Z,16.18
2017-10-30T11:57:07.987Z,15.74
2017-10-30T11:58:08.302Z,15.39
2017-10-30T11:59:08.403Z,15.03
2017-10-30T12:00:08.290Z,15.11
2017-10-30T12:01:08.287Z,15.51
2017-10-30T12:02:07.937Z,15.78
2017-10-30T12:03:08.277Z,15.93
2017-10-30T12:04:07.926Z,15.79
2017-10-30T12:05:08.252Z,15.81
2017-10-30T12:06:07.917Z,16.11
2017-10-30T12:07:07.904Z,16.45
2017-10-30T12:08:07.894Z,16.56
2017-10-30T12:09:07.913Z,16.56
2017-10-30T12:10:08.228Z,16.5
2017-10-30T12:11:07.548Z,16.41
2017-10-30T12:12:07.872Z,15.94
2017-10-30T12:13:07.539Z,15.79
2017-10-30T12:14:07.865Z,16.11
2017-10-30T12:15:07.857Z,16.56
2017-10-30T12:16:07.525Z,17.03
2017-10-30T12:17:07.858Z,17.41
2017-10-30T12:18:08.173Z,17.62
2017-10-30T12:19:08.186Z,17.36
2017-10-30T12:20:07.503Z,16.6
2017-10-30T12:21:07.826Z,16.27
2017-10-30T12:22:07.821Z,15.89
2017-10-30T12:23:07.816Z,15.64
2017-10-30T12:24:08.153Z,15.64
2017-10-30T12:25:08.137Z,15.64
2017-10-30T12:26:08.132Z,15.41
2017-10-30T12:27:08.137Z,15.23
2017-10-30T12:28:07.457Z,14.8
2017-10-30T12:29:07.781Z,14.72
2017-10-30T12:30:07.779Z,14.61
2017-10-30T12:31:07.435Z,14.47
2017-10-30T12:32:07.764Z,14.35
2017-10-30T12:33:07.429Z,14.17
2017-10-30T12:34:07.755Z,13.98
2017-10-30T12:35:08.126Z,13.88
2017-10-30T12:36:07.736Z,13.65
2017-10-30T12:37:07.403Z,13.24
2017-10-30T12:38:07.724Z,13.09
2017-10-30T12:39:07.383Z,12.87
2017-10-30T12:40:07.802Z,12.66
2017-10-30T12:41:07.715Z,12.46
2017-10-30T12:42:08.027Z,12.41
2017-10-30T12:43:07.676Z,12.19
2017-10-30T12:44:07.993Z,12.21
2017-10-30T12:45:07.987Z,12.19
2017-10-30T12:46:07.315Z,12.23
2017-10-30T12:47:07.301Z,12.37
2017-10-30T12:48:07.966Z,12.11
2017-10-30T12:49:07.610Z,11.97
2017-10-30T12:50:08.132Z,11.94
2017-10-30T12:51:07.925Z,11.97
2017-10-30T12:52:07.602Z,11.93
2017-10-30T12:53:07.567Z,11.83
2017-10-30T12:54:07.893Z,11.83
2017-10-30T12:55:07.976Z,11.78
2017-10-30T12:56:07.865Z,11.59
2017-10-30T12:57:07.853Z,11.67
2017-10-30T12:58:07.857Z,11.56
2017-10-30T12:59:07.835Z,11.53
2017-10-30T13:00:07.151Z,11.62
2017-10-30T13:01:07.134Z,11.65
2017-10-30T13:02:07.125Z,11.71
2017-10-30T13:03:07.447Z,11.71
2017-10-30T13:04:07.433Z,11.85
2017-10-30T13:05:07.091Z,11.78
2017-10-30T13:06:07.739Z,11.77
2017-10-30T13:07:07.059Z,11.68
2017-10-30T13:08:07.049Z,11.82
2017-10-30T13:09:07.364Z,11.65
2017-10-30T13:10:07.694Z,11.74
2017-10-30T13:11:07.676Z,11.85
2017-10-30T13:12:07.683Z,11.93
2017-10-30T13:13:07.651Z,11.94